createdAt,value
2017-10-30T00:00:45.265Z,0
2017-10-30T00:02:06.778Z,0
2017-10-30T00:03:28.638Z,0
2017-10-30T00:04:50.819Z,0
2017-10-30T00:06:12.913Z,0
2017-10-30T00:07:34.800Z,0
2017-10-30T00:08:56.307Z,0
2017-10-30T00:10:18.158Z,0
2017-10-30T00:11:40.352Z,0
2017-10-30T00:13:02.205Z,0
2017-10-30T00:14:24.025Z,0
2017-10-30T00:15:46.514Z,0
2017-10-30T00:17:08.716Z,0
2017-10-30T00:18:30.864Z,0
2017-10-30T00:19:53.190Z,0
2017-10-30T00:21:15.378Z,0
2017-10-30T00:22:37.942Z,0
2017-10-30T00:24:00.456Z,0
2017-10-30T00:25:22.344Z,0
2017-10-30T00:26:45.151Z,0
2017-10-30T00:28:06.991Z,0
2017-10-30T00:29:28.857Z,0
2017-10-30T00:30:50.386Z,0
2017-10-30T00:32:12.225Z,0
2017-10-30T00:33:34.410Z,0
2017-10-30T00:34:56.604Z,0
2017-10-30T00:36:18.442Z,0
2017-10-30T00:37:41.683Z,0
2017-10-30T00:39:04.222Z,0
2017-10-30T00:40:26.424Z,0
2017-10-30T00:41:47.606Z,0
2017-10-30T00:43:09.732Z,0
2017-10-30T00:44:31.917Z,0
2017-10-30T00:45:53.774Z,0
2017-10-30T00:47:15.616Z,0
2017-10-30T00:48:37.456Z,0
2017-10-30T00:49:59.633Z,0
2017-10-30T00:51:21.472Z,0
2017-10-30T00:52:44.018Z,0
2017-10-30T00:54:05.625Z,0
2017-10-30T00:55:27.807Z,0
2017-10-30T00:56:50.374Z,0
2017-10-30T00:58:12.607Z,0
2017-10-30T00:59:35.096Z,0
2017-10-30T01:00:56.297Z,0
2017-10-30T01:02:18.890Z,0
2017-10-30T01:03:41.058Z,0
2017-10-30T01:05:02.977Z,0
2017-10-30T01:06:25.135Z,0
2017-10-30T01:07:47.704Z,0
2017-10-30T01:09:10.225Z,0
2017-10-30T01:10:32.408Z,0
2017-10-30T01:11:54.230Z,0
2017-10-30T01:13:16.806Z,0
2017-10-30T01:14:38.639Z,0
2017-10-30T01:16:00.802Z,0
2017-10-30T01:17:22.634Z,0
2017-10-30T01:18:44.805Z,0
2017-10-30T01:20:07.376Z,0
2017-10-30T01:21:29.922Z,0
2017-10-30T01:22:52.120Z,0
2017-10-30T01:24:14.088Z,0
2017-10-30T01:25:36.258Z,0
2017-10-30T01:26:57.819Z,0
2017-10-30T01:28:20.056Z,0
2017-10-30T01:29:42.552Z,0
2017-10-30T01:31:04.719Z,0
2017-10-30T01:32:27.478Z,0
2017-10-30T01:33:50.165Z,0
2017-10-30T01:35:12.005Z,0
2017-10-30T01:36:34.195Z,0
2017-10-30T01:37:56.035Z,0
2017-10-30T01:39:17.863Z,0
2017-10-30T01:40:39.038Z,0
2017-10-30T01:42:00.594Z,0
2017-10-30T01:43:22.765Z,0
2017-10-30T01:44:44.934Z,0
2017-10-30T01:46:06.782Z,0
2017-10-30T01:47:28.743Z,0
2017-10-30T01:48:50.832Z,0
2017-10-30T01:50:13.439Z,0
2017-10-30T01:51:34.953Z,0
2017-10-30T01:52:57.128Z,0
2017-10-30T01:54:19.315Z,0
2017-10-30T01:55:41.811Z,0
2017-10-30T01:57:03.979Z,0
2017-10-30T01:58:26.158Z,0
2017-10-30T01:59:48.300Z,0
2017-10-30T02:01:09.933Z,0
2017-10-30T02:02:31.127Z,0
2017-10-30T02:03:53.420Z,0
2017-10-30T02:05:15.931Z,0
2017-10-30T02:06:37.475Z,0
2017-10-30T02:08:00.044Z,0
2017-10-30T02:09:21.888Z,0
2017-10-30T02:10:44.352Z,0
2017-10-30T02:12:05.876Z,0
2017-10-30T02:13:28.385Z,0
2017-10-30T02:14:50.674Z,0
2017-10-30T02:16:12.862Z,0
2017-10-30T02:17:35.120Z,0
2017-10-30T02:18:56.655Z,0
2017-10-30T02:20:18.501Z,0
2017-10-30T02:21:40.315Z,0
2017-10-30T02:23:01.871Z,0
2017-10-30T02:24:23.747Z,0
2017-10-30T02:25:46.010Z,0
2017-10-30T02:27:07.765Z,0
2017-10-30T02:28:30.096Z,0
2017-10-30T02:29:52.653Z,0
2017-10-30T02:31:14.490Z,0
2017-10-30T02:32:37.289Z,0
2017-10-30T02:33:59.474Z,0
2017-10-30T02:35:21.341Z,0
2017-10-30T02:36:43.529Z,0
2017-10-30T02:38:05.365Z,0
2017-10-30T02:39:27.574Z,0
2017-10-30T02:40:49.095Z,0
2017-10-30T02:42:11.277Z,0
2017-10-30T02:43:33.488Z,0
2017-10-30T02:44:55.662Z,0
2017-10-30T02:46:17.866Z,0
2017-10-30T02:47:40.499Z,0
2017-10-30T02:49:02.951Z,0
2017-10-30T02:50:25.482Z,0
2017-10-30T02:51:47.675Z,0
2017-10-30T02:53:09.555Z,0
2017-10-30T02:54:31.697Z,0
2017-10-30T02:55:54.373Z,0
2017-10-30T02:57:16.893Z,0
2017-10-30T02:58:39.054Z,0
2017-10-30T03:00:01.160Z,0
2017-10-30T03:01:23.418Z,0
2017-10-30T03:02:45.030Z,0
2017-10-30T03:04:06.531Z,0
2017-10-30T03:05:29.008Z,0
2017-10-30T03:06:51.617Z,0
2017-10-30T03:08:13.565Z,0
2017-10-30T03:09:36.066Z,0
2017-10-30T03:10:58.266Z,0
2017-10-30T03:12:20.789Z,0
2017-10-30T03:13:42.978Z,0
2017-10-30T03:15:05.249Z,0
2017-10-30T03:16:27.686Z,0
2017-10-30T03:17:49.865Z,0
2017-10-30T03:19:11.718Z,0
2017-10-30T03:20:33.877Z,0
2017-10-30T03:21:56.679Z,0
2017-10-30T03:23:18.845Z,0
2017-10-30T03:24:40.715Z,0
2017-10-30T03:26:02.885Z,0
2017-10-30T03:27:24.305Z,0
2017-10-30T03:28:46.160Z,0
2017-10-30T03:30:07.670Z,0
2017-10-30T03:31:29.495Z,0
2017-10-30T03:32:51.083Z,0
2017-10-30T03:34:13.297Z,0
2017-10-30T03:35:35.796Z,0
2017-10-30T03:36:57.617Z,0
2017-10-30T03:38:19.706Z,0
2017-10-30T03:39:41.542Z,0
2017-10-30T03:41:03.697Z,0
2017-10-30T03:42:26.204Z,0
2017-10-30T03:43:48.776Z,0
2017-10-30T03:45:10.637Z,0
2017-10-30T03:46:32.585Z,0
2017-10-30T03:47:54.768Z,0
2017-10-30T03:49:17.199Z,0
2017-10-30T03:50:39.707Z,0
2017-10-30T03:52:01.554Z,0
2017-10-30T03:53:23.095Z,0
2017-10-30T03:54:59.834Z,0
2017-10-30T03:56:21.999Z,0
2017-10-30T03:57:43.858Z,0
2017-10-30T03:59:06.015Z,0
2017-10-30T04:00:27.481Z,0
2017-10-30T04:01:49.994Z,0
2017-10-30T04:03:12.183Z,0
2017-10-30T04:04:34.350Z,0
2017-10-30T04:05:56.501Z,0
2017-10-30T04:07:17.732Z,0
2017-10-30T04:08:39.234Z,0
2017-10-30T04:10:01.420Z,0
2017-10-30T04:11:23.599Z,0
2017-10-30T04:12:45.444Z,0
2017-10-30T04:14:07.615Z,0
2017-10-30T04:15:29.764Z,0
2017-10-30T04:16:51.864Z,0
2017-10-30T04:18:13.702Z,0
2017-10-30T04:19:35.573Z,0
2017-10-30T04:20:57.093Z,0
2017-10-30T04:22:18.976Z,0
2017-10-30T04:23:41.145Z,0
2017-10-30T04:25:03.770Z,0
2017-10-30T04:26:25.602Z,0
2017-10-30T04:27:47.441Z,0
2017-10-30T04:29:08.609Z,0
2017-10-30T04:30:30.222Z,0
2017-10-30T04:31:51.740Z,0
2017-10-30T04:33:13.827Z,0
2017-10-30T04:34:35.988Z,0
2017-10-30T04:35:57.820Z,0
2017-10-30T04:37:18.673Z,0
2017-10-30T04:38:41.125Z,0
2017-10-30T04:40:02.993Z,0
2017-10-30T04:41:24.620Z,0
2017-10-30T04:42:46.474Z,0
2017-10-30T04:44:08.591Z,0
2017-10-30T04:45:30.767Z,0
2017-10-30T04:46:53.039Z,0
2017-10-30T04:48:14.875Z,0
2017-10-30T04:49:37.343Z,0
2017-10-30T04:50:58.840Z,0
2017-10-30T04:52:20.995Z,0
2017-10-30T04:53:42.503Z,0
2017-10-30T04:55:04.761Z,0
2017-10-30T04:56:26.276Z,0
2017-10-30T04:57:48.125Z,0
2017-10-30T04:59:10.333Z,0
2017-10-30T05:00:32.664Z,0
2017-10-30T05:01:54.511Z,0
2017-10-30T05:03:16.154Z,0
2017-10-30T05:04:38.695Z,0
2017-10-30T05:06:00.214Z,0
2017-10-30T05:07:22.376Z,0
2017-10-30T05:08:44.633Z,0
2017-10-30T05:10:06.812Z,0
2017-10-30T05:11:28.605Z,0
2017-10-30T05:12:50.770Z,0
2017-10-30T05:14:12.953Z,0
2017-10-30T05:15:34.443Z,0
2017-10-30T05:16:56.607Z,0
2017-10-30T05:18:19.110Z,0
2017-10-30T05:19:40.957Z,0
2017-10-30T05:21:02.465Z,0
2017-10-30T05:22:24.979Z,0
2017-10-30T05:23:46.831Z,0
2017-10-30T05:25:08.454Z,0
2017-10-30T05:26:30.022Z,0
2017-10-30T05:27:52.400Z,0
2017-10-30T05:29:14.243Z,0
2017-10-30T05:30:35.749Z,0
2017-10-30T05:31:57.353Z,0
2017-10-30T05:33:19.117Z,0
2017-10-30T05:34:40.981Z,0
2017-10-30T05:36:02.821Z,0
2017-10-30T05:37:24.660Z,0
2017-10-30T05:38:46.468Z,0
2017-10-30T05:40:08.741Z,4
2017-10-30T05:41:29.913Z,0
2017-10-30T05:42:52.078Z,4
2017-10-30T05:44:14.568Z,0
2017-10-30T05:45:36.614Z,4
2017-10-30T05:46:59.138Z,4
2017-10-30T05:48:20.991Z,4
2017-10-30T05:49:43.464Z,8
2017-10-30T05:51:05.654Z,8
2017-10-30T05:52:27.834Z,8
2017-10-30T05:53:49.691Z,8
2017-10-30T05:55:11.837Z,12
2017-10-30T05:56:34.004Z,12
2017-10-30T05:57:56.681Z,20
2017-10-30T05:59:18.941Z,24
2017-10-30T06:00:40.684Z,32
2017-10-30T06:02:02.233Z,40
2017-10-30T06:03:23.826Z,48
2017-10-30T06:04:46.014Z,60
2017-10-30T06:06:08.488Z,80
2017-10-30T06:07:31.021Z,96
2017-10-30T06:08:53.201Z,116
2017-10-30T06:10:15.725Z,132
2017-10-30T06:11:37.873Z,144
2017-10-30T06:13:00.044Z,160
2017-10-30T06:14:21.892Z,192
2017-10-30T06:15:44.416Z,236
2017-10-30T06:17:06.919Z,276
2017-10-30T06:18:28.762Z,316
2017-10-30T06:19:49.949Z,360
2017-10-30T06:21:11.814Z,400
2017-10-30T06:22:33.717Z,444
2017-10-30T06:23:55.884Z,488
2017-10-30T06:25:17.744Z,532
2017-10-30T06:26:39.590Z,576
2017-10-30T06:28:02.402Z,628
2017-10-30T06:29:24.244Z,676
2017-10-30T06:30:46.405Z,728
2017-10-30T06:32:07.919Z,780
2017-10-30T06:33:30.041Z,836
2017-10-30T06:34:51.904Z,892
2017-10-30T06:36:13.867Z,948
2017-10-30T06:37:35.863Z,996
2017-10-30T06:38:58.309Z,1048
2017-10-30T06:40:20.475Z,1092
2017-10-30T06:41:42.677Z,1152
2017-10-30T06:43:04.895Z,1208
2017-10-30T06:44:26.741Z,1256
2017-10-30T06:45:49.245Z,1312
2017-10-30T06:47:11.135Z,1376
2017-10-30T06:48:33.366Z,1472
2017-10-30T06:49:55.294Z,1552
2017-10-30T06:51:17.126Z,1632
2017-10-30T06:52:39.304Z,1708
2017-10-30T06:54:00.947Z,1772
2017-10-30T06:55:23.575Z,1896
2017-10-30T06:56:45.536Z,1960
2017-10-30T06:58:08.044Z,1980
2017-10-30T06:59:30.231Z,2008
2017-10-30T07:00:52.684Z,1880
2017-10-30T07:02:14.597Z,1848
2017-10-30T07:03:36.484Z,1804
2017-10-30T07:04:59.264Z,1764
2017-10-30T07:06:21.801Z,1764
2017-10-30T07:07:43.641Z,1856
2017-10-30T07:09:06.139Z,1916
2017-10-30T07:10:27.645Z,1932
2017-10-30T07:11:50.245Z,2064
2017-10-30T07:13:12.126Z,2128
2017-10-30T07:14:34.667Z,2200
2017-10-30T07:15:56.500Z,2276
2017-10-30T07:17:18.755Z,2352
2017-10-30T07:18:40.309Z,2448
2017-10-30T07:20:01.866Z,2552
2017-10-30T07:21:24.071Z,2628
2017-10-30T07:22:45.940Z,2696
2017-10-30T07:24:08.121Z,2788
2017-10-30T07:25:30.697Z,2944
2017-10-30T07:26:52.866Z,3192
2017-10-30T07:28:15.362Z,3296
2017-10-30T07:29:37.873Z,3304
2017-10-30T07:31:00.379Z,3248
2017-10-30T07:32:22.580Z,3252
2017-10-30T07:33:44.706Z,3188
2017-10-30T07:35:07.226Z,3176
2017-10-30T07:36:29.409Z,3212
2017-10-30T07:37:51.946Z,3448
2017-10-30T07:39:14.390Z,4324
2017-10-30T07:40:36.633Z,4828
2017-10-30T07:41:58.824Z,4456
2017-10-30T07:43:20.801Z,4700
2017-10-30T07:44:43.622Z,4936
2017-10-30T07:46:05.146Z,5368
2017-10-30T07:47:27.054Z,5740
2017-10-30T07:48:48.895Z,5924
2017-10-30T07:50:10.253Z,6028
2017-10-30T07:51:32.240Z,5800
2017-10-30T07:52:54.786Z,5604
2017-10-30T07:54:16.623Z,5760
2017-10-30T07:55:39.073Z,5224
2017-10-30T07:57:01.587Z,4900
2017-10-30T07:58:23.845Z,4508
2017-10-30T07:59:46.347Z,4168
2017-10-30T08:01:08.852Z,3760
2017-10-30T08:02:30.697Z,3824
2017-10-30T08:03:52.562Z,4428
2017-10-30T08:05:14.744Z,4860
2017-10-30T08:06:36.944Z,4756
2017-10-30T08:07:58.798Z,4304
2017-10-30T08:09:21.017Z,3452
2017-10-30T08:10:43.210Z,3308
2017-10-30T08:12:05.728Z,3476
2017-10-30T08:13:27.246Z,3664
2017-10-30T08:14:49.593Z,3812
2017-10-30T08:16:11.767Z,3720
2017-10-30T08:17:33.881Z,3684
2017-10-30T08:18:55.734Z,3672
2017-10-30T08:20:17.912Z,3688
2017-10-30T08:21:40.090Z,3696
2017-10-30T08:23:02.615Z,3696
2017-10-30T08:24:24.554Z,3692
2017-10-30T08:25:47.148Z,3696
2017-10-30T08:27:09.004Z,3760
2017-10-30T08:28:31.175Z,3768
2017-10-30T08:29:53.514Z,3780
2017-10-30T08:31:15.053Z,3792
2017-10-30T08:32:37.591Z,3808
2017-10-30T08:33:59.890Z,3820
2017-10-30T08:35:21.755Z,3820
2017-10-30T08:36:43.943Z,3812
2017-10-30T08:38:06.140Z,3824
2017-10-30T08:39:28.331Z,3840
2017-10-30T08:40:50.515Z,3864
2017-10-30T08:42:12.737Z,3888
2017-10-30T08:43:34.920Z,3928
2017-10-30T08:44:57.799Z,4044
2017-10-30T08:46:19.664Z,4172
2017-10-30T08:47:41.514Z,4536
2017-10-30T08:49:03.409Z,4908
2017-10-30T08:50:26.245Z,4912
2017-10-30T08:51:48.752Z,5360
2017-10-30T08:53:10.969Z,5516
2017-10-30T08:54:33.528Z,5368
2017-10-30T08:55:55.379Z,5416
2017-10-30T08:57:17.565Z,4604
2017-10-30T08:58:39.877Z,4276
2017-10-30T09:00:02.455Z,4788
2017-10-30T09:01:24.936Z,4856
2017-10-30T09:02:47.466Z,4536
2017-10-30T09:04:09.386Z,4132
2017-10-30T09:05:32.039Z,4020
2017-10-30T09:06:54.067Z,4064
2017-10-30T09:08:16.354Z,4092
2017-10-30T09:09:38.899Z,4052
2017-10-30T09:11:01.147Z,4036
2017-10-30T09:12:23.967Z,4032
2017-10-30T09:13:45.824Z,4040
2017-10-30T09:15:07.676Z,4032
2017-10-30T09:16:29.219Z,4044
2017-10-30T09:17:51.427Z,4032
2017-10-30T09:19:13.989Z,4032
2017-10-30T09:20:36.528Z,4036
2017-10-30T09:21:59.052Z,4040
2017-10-30T09:23:21.268Z,4052
2017-10-30T09:24:43.429Z,4056
2017-10-30T09:26:05.630Z,4060
2017-10-30T09:27:27.801Z,4072
2017-10-30T09:28:49.646Z,4088
2017-10-30T09:30:11.624Z,4100
2017-10-30T09:31:33.505Z,4112
2017-10-30T09:32:55.834Z,4136
2017-10-30T09:34:18.366Z,4164
2017-10-30T09:35:40.299Z,4188
2017-10-30T09:37:01.826Z,4228
2017-10-30T09:38:23.739Z,4280
2017-10-30T09:39:45.569Z,4300
2017-10-30T09:41:08.085Z,4348
2017-10-30T09:42:30.597Z,4464
2017-10-30T09:43:53.194Z,4676
2017-10-30T09:45:15.378Z,4992
2017-10-30T09:46:37.889Z,5508
2017-10-30T09:47:59.407Z,6564
2017-10-30T09:49:21.924Z,7720
2017-10-30T09:50:44.126Z,9112
2017-10-30T09:52:05.965Z,9396
2017-10-30T09:53:28.238Z,8576
2017-10-30T09:54:50.530Z,7704
2017-10-30T09:56:12.772Z,7016
2017-10-30T09:57:34.615Z,6168
2017-10-30T09:58:56.150Z,6044
2017-10-30T10:00:18.471Z,5988
2017-10-30T10:01:41.185Z,6072
2017-10-30T10:03:03.888Z,6336
2017-10-30T10:04:25.466Z,6608
2017-10-30T10:05:47.664Z,6556
2017-10-30T10:07:09.874Z,5952
2017-10-30T10:08:32.145Z,5492
2017-10-30T10:09:54.820Z,5260
2017-10-30T10:11:17.003Z,5108
2017-10-30T10:12:39.496Z,5156
2017-10-30T10:14:01.695Z,5116
2017-10-30T10:15:24.240Z,4952
2017-10-30T10:16:46.112Z,4788
2017-10-30T10:18:08.332Z,4676
2017-10-30T10:19:30.197Z,4712
2017-10-30T10:20:52.404Z,5008
2017-10-30T10:22:14.279Z,5020
2017-10-30T10:23:36.885Z,5340
2017-10-30T10:24:59.406Z,5896
2017-10-30T10:26:21.611Z,6772
2017-10-30T10:27:43.602Z,7580
2017-10-30T10:29:06.425Z,7452
2017-10-30T10:30:28.939Z,6272
2017-10-30T10:31:51.214Z,7172
2017-10-30T10:33:13.731Z,8724
2017-10-30T10:34:35.894Z,9968
2017-10-30T10:35:57.771Z,9020
2017-10-30T10:37:20.306Z,9108
2017-10-30T10:38:42.181Z,8608
2017-10-30T10:40:04.972Z,8340
2017-10-30T10:41:26.519Z,7944
2017-10-30T10:42:48.374Z,7400
2017-10-30T10:44:10.910Z,6636
2017-10-30T10:45:32.360Z,6068
2017-10-30T10:46:54.542Z,5904
2017-10-30T10:48:16.735Z,5512
2017-10-30T10:49:39.005Z,4696
2017-10-30T10:51:01.811Z,4184
2017-10-30T10:52:23.995Z,3824
2017-10-30T10:53:46.244Z,3688
2017-10-30T10:55:08.118Z,4012
2017-10-30T10:56:29.943Z,4100
2017-10-30T10:57:51.806Z,4092
2017-10-30T10:59:14.350Z,4088
2017-10-30T11:00:36.577Z,4096
2017-10-30T11:01:59.594Z,4104
2017-10-30T11:03:21.786Z,4116
2017-10-30T11:04:43.639Z,4132
2017-10-30T11:06:06.240Z,4128
2017-10-30T11:07:28.393Z,4128
2017-10-30T11:08:50.305Z,4140
2017-10-30T11:10:12.531Z,4144
2017-10-30T11:11:35.051Z,4144
2017-10-30T11:12:57.253Z,4144
2017-10-30T11:14:19.105Z,4156
2017-10-30T11:15:40.280Z,4132
2017-10-30T11:17:02.855Z,4136
2017-10-30T11:18:25.673Z,4132
2017-10-30T11:19:47.614Z,4132
2017-10-30T11:21:09.481Z,4140
2017-10-30T11:22:32.196Z,4144
2017-10-30T11:23:54.449Z,4164
2017-10-30T11:25:16.648Z,4188
2017-10-30T11:26:38.173Z,4232
2017-10-30T11:28:00.549Z,4296
2017-10-30T11:29:23.073Z,4276
2017-10-30T11:30:45.260Z,4240
2017-10-30T11:32:07.461Z,4272
2017-10-30T11:33:29.696Z,4324
2017-10-30T11:34:51.955Z,4392
2017-10-30T11:36:14.208Z,4336
2017-10-30T11:37:36.735Z,4156
2017-10-30T11:38:58.955Z,4344
2017-10-30T11:40:21.498Z,4668
2017-10-30T11:41:44.098Z,5124
2017-10-30T11:43:05.959Z,4924
2017-10-30T11:44:28.167Z,5224
2017-10-30T11:45:50.047Z,5956
2017-10-30T11:47:12.232Z,7284
2017-10-30T11:48:34.099Z,8548
2017-10-30T11:49:56.297Z,9636
2017-10-30T11:51:18.541Z,8396
2017-10-30T11:52:40.406Z,7600
2017-10-30T11:54:02.605Z,7992
2017-10-30T11:55:24.456Z,8260
2017-10-30T11:56:46.740Z,7808
2017-10-30T11:58:09.256Z,6856
2017-10-30T11:59:31.507Z,5416
2017-10-30T12:00:53.687Z,4924
2017-10-30T12:02:15.909Z,4396
2017-10-30T12:03:37.826Z,3952
2017-10-30T12:05:00.069Z,4308
2017-10-30T12:06:22.635Z,5572
2017-10-30T12:07:44.827Z,6432
2017-10-30T12:09:07.335Z,6844
2017-10-30T12:10:29.971Z,6820
2017-10-30T12:11:51.845Z,6960
2017-10-30T12:13:14.028Z,7048
2017-10-30T12:14:36.621Z,7272
2017-10-30T12:15:58.900Z,7404
2017-10-30T12:17:20.773Z,7368
2017-10-30T12:18:42.721Z,7372
2017-10-30T12:20:04.935Z,7484
2017-10-30T12:21:27.125Z,7180
2017-10-30T12:22:49.294Z,6820
2017-10-30T12:24:11.836Z,6840
2017-10-30T12:25:34.189Z,6792
2017-10-30T12:26:56.744Z,6152
2017-10-30T12:28:19.015Z,5920
2017-10-30T12:29:40.885Z,6032
2017-10-30T12:31:03.100Z,6088
2017-10-30T12:32:25.311Z,6092
2017-10-30T12:33:47.510Z,5868
2017-10-30T12:35:10.064Z,4964
2017-10-30T12:36:32.629Z,4152
2017-10-30T12:37:54.805Z,3784
2017-10-30T12:39:17.055Z,3564
2017-10-30T12:40:39.293Z,3536
2017-10-30T12:42:01.495Z,3592
2017-10-30T12:43:23.789Z,3736
2017-10-30T12:44:46.097Z,3780
2017-10-30T12:46:08.309Z,4076
2017-10-30T12:47:30.512Z,4712
2017-10-30T12:48:52.706Z,5088
2017-10-30T12:50:14.227Z,5452
2017-10-30T12:51:36.763Z,5736
2017-10-30T12:52:58.636Z,5788
2017-10-30T12:54:20.813Z,5608
2017-10-30T12:55:43.011Z,5208
2017-10-30T12:57:05.610Z,4784
2017-10-30T12:58:27.941Z,4624
2017-10-30T12:59:49.464Z,4700
2017-10-30T13:01:11.314Z,4980
2017-10-30T13:02:34.010Z,5396
2017-10-30T13:03:55.226Z,5628
2017-10-30T13:05:17.865Z,5840
2017-10-30T13:06:40.177Z,5980
2017-10-30T13:08:02.725Z,6404
2017-10-30T13:09:24.996Z,6612
2017-10-30T13:10:47.334Z,6708
2017-10-30T13:12:09.844Z,6512
2017-10-30T13:13:32.025Z,5856
2017-10-30T13:14:53.994Z,4616
2017-10-30T13:16:16.294Z,3824
2017-10-30T13:17:38.170Z,3660
2017-10-30T13:18:59.713Z,3792
2017-10-30T13:20:21.912Z,4184
2017-10-30T13:21:44.554Z,4880
2017-10-30T13:23:07.083Z,5716
2017-10-30T13:24:28.951Z,5956
2017-10-30T13:25:50.939Z,5416
2017-10-30T13:27:13.500Z,4788
2017-10-30T13:28:35.694Z,4200
2017-10-30T13:29:58.466Z,3856
2017-10-30T13:31:20.670Z,3824
2017-10-30T13:32:42.874Z,3832
2017-10-30T13:34:05.042Z,3768
2017-10-30T13:35:27.255Z,3832
2017-10-30T13:36:49.459Z,3800
2017-10-30T13:38:11.736Z,3760
2017-10-30T13:39:34.294Z,3724
2017-10-30T13:40:55.847Z,3696
2017-10-30T13:42:18.384Z,3684
2017-10-30T13:43:40.583Z,3668
2017-10-30T13:45:02.476Z,3656
2017-10-30T13:46:25.293Z,3504
2017-10-30T13:47:47.476Z,3480
2017-10-30T13:49:09.661Z,3468
2017-10-30T13:50:32.186Z,3336
2017-10-30T13:51:54.041Z,3296
2017-10-30T13:53:16.249Z,3432
2017-10-30T13:54:38.452Z,3392
2017-10-30T13:56:00.993Z,3236
2017-10-30T13:57:23.565Z,3388
2017-10-30T13:58:45.422Z,3700
2017-10-30T14:00:08.052Z,4108
2017-10-30T14:01:30.244Z,4356
2017-10-30T14:02:52.914Z,4328
2017-10-30T14:04:14.784Z,4076
2017-10-30T14:05:37.495Z,3692
2017-10-30T14:07:00.037Z,3400
2017-10-30T14:08:22.298Z,3204
2017-10-30T14:09:44.517Z,3088
2017-10-30T14:11:07.044Z,3064
2017-10-30T14:12:29.575Z,2916
2017-10-30T14:13:52.426Z,2904
2017-10-30T14:15:14.282Z,3392
2017-10-30T14:16:36.935Z,3488
2017-10-30T14:17:59.123Z,3328
2017-10-30T14:19:21.107Z,3144
2017-10-30T14:20:42.965Z,3448
2017-10-30T14:22:05.495Z,3704
2017-10-30T14:23:27.427Z,3840
2017-10-30T14:24:49.665Z,3828
2017-10-30T14:26:11.205Z,3780
2017-10-30T14:27:32.184Z,3856
2017-10-30T14:28:54.035Z,3796
2017-10-30T14:30:16.246Z,3896
2017-10-30T14:31:38.488Z,3996
2017-10-30T14:33:01.117Z,3776
2017-10-30T14:34:23.064Z,3436
2017-10-30T14:35:45.584Z,3332
2017-10-30T14:37:08.094Z,3436
2017-10-30T14:38:30.263Z,3524
2017-10-30T14:39:52.832Z,3500
2017-10-30T14:41:15.035Z,3444
2017-10-30T14:42:36.923Z,3492
2017-10-30T14:43:59.441Z,3400
2017-10-30T14:45:21.999Z,3080
2017-10-30T14:46:44.311Z,2764
2017-10-30T14:48:06.924Z,2520
2017-10-30T14:49:28.461Z,2512
2017-10-30T14:50:50.679Z,2508
2017-10-30T14:52:12.542Z,2544
2017-10-30T14:53:34.837Z,2532
2017-10-30T14:54:57.057Z,2436
2017-10-30T14:56:19.238Z,2392
2017-10-30T14:57:41.097Z,2356
2017-10-30T14:59:03.312Z,2332
2017-10-30T15:00:25.836Z,2360
2017-10-30T15:01:48.024Z,2328
2017-10-30T15:03:10.227Z,2292
2017-10-30T15:04:32.076Z,2248
2017-10-30T15:05:54.258Z,2164
2017-10-30T15:07:16.445Z,2092
2017-10-30T15:08:38.001Z,2028
2017-10-30T15:10:00.192Z,2024
2017-10-30T15:11:21.740Z,1988
2017-10-30T15:12:44.242Z,1972
2017-10-30T15:14:06.794Z,2100
2017-10-30T15:15:29.000Z,2128
2017-10-30T15:16:51.549Z,1888
2017-10-30T15:18:14.074Z,1704
2017-10-30T15:19:36.654Z,1500
2017-10-30T15:20:59.210Z,1292
2017-10-30T15:22:21.085Z,1148
2017-10-30T15:23:43.279Z,976
2017-10-30T15:25:05.714Z,864
2017-10-30T15:26:27.932Z,852
2017-10-30T15:27:50.453Z,864
2017-10-30T15:29:12.354Z,816
2017-10-30T15:30:34.962Z,728
2017-10-30T15:31:57.193Z,580
2017-10-30T15:33:19.432Z,476
2017-10-30T15:34:41.999Z,488
2017-10-30T15:36:04.163Z,632
2017-10-30T15:37:26.361Z,728
2017-10-30T15:38:48.339Z,748
2017-10-30T15:40:11.014Z,764
2017-10-30T15:41:33.244Z,752
2017-10-30T15:42:55.455Z,712
2017-10-30T15:44:17.306Z,672
2017-10-30T15:45:39.481Z,628
2017-10-30T15:47:01.944Z,576
2017-10-30T15:48:24.116Z,512
2017-10-30T15:49:46.738Z,452
2017-10-30T15:51:09.265Z,396
2017-10-30T15:52:31.613Z,348
2017-10-30T15:53:54.145Z,300
2017-10-30T15:55:16.020Z,264
2017-10-30T15:56:38.214Z,216
2017-10-30T15:58:00.394Z,176
2017-10-30T15:59:22.916Z,148
2017-10-30T16:00:45.117Z,124
2017-10-30T16:02:07.324Z,100
2017-10-30T16:03:29.883Z,88
2017-10-30T16:04:52.047Z,68
2017-10-30T16:06:14.603Z,60
2017-10-30T16:07:36.791Z,48
2017-10-30T16:08:58.956Z,40
2017-10-30T16:10:21.150Z,36
2017-10-30T16:11:43.385Z,28
2017-10-30T16:13:05.241Z,20
2017-10-30T16:14:27.293Z,20
2017-10-30T16:15:49.336Z,12
2017-10-30T16:17:11.843Z,12
2017-10-30T16:18:34.040Z,8
2017-10-30T16:19:56.569Z,8
2017-10-30T16:21:18.824Z,4
2017-10-30T16:22:41.324Z,4
2017-10-30T16:24:03.621Z,0
2017-10-30T16:25:26.125Z,4
2017-10-30T16:26:48.348Z,68
2017-10-30T16:28:10.523Z,68
2017-10-30T16:29:33.077Z,64
2017-10-30T16:30:55.261Z,68
2017-10-30T16:32:17.458Z,64
2017-10-30T16:33:39.656Z,64
2017-10-30T16:35:02.174Z,64
2017-10-30T16:36:24.804Z,0
2017-10-30T16:37:47.000Z,0
2017-10-30T16:39:09.175Z,0
2017-10-30T16:40:31.681Z,0
2017-10-30T16:41:53.890Z,0
2017-10-30T16:43:16.407Z,0
2017-10-30T16:44:38.962Z,0
2017-10-30T16:46:01.505Z,0
2017-10-30T16:47:23.755Z,0
2017-10-30T16:48:45.705Z,0
2017-10-30T16:50:08.295Z,0
2017-10-30T16:51:30.468Z,0
2017-10-30T16:52:53.052Z,0
2017-10-30T16:54:15.621Z,0
2017-10-30T16:55:38.137Z,0
2017-10-30T16:57:00.331Z,0
2017-10-30T16:58:22.519Z,0
2017-10-30T16:59:44.708Z,0
2017-10-30T17:01:06.933Z,0
2017-10-30T17:02:28.796Z,0
2017-10-30T17:03:50.999Z,0
2017-10-30T17:05:12.866Z,0
2017-10-30T17:06:35.463Z,0
2017-10-30T17:07:58.096Z,0
2017-10-30T17:09:20.306Z,0
2017-10-30T17:10:42.496Z,0
2017-10-30T17:12:05.052Z,0
2017-10-30T17:13:27.266Z,0
2017-10-30T17:14:49.801Z,0
2017-10-30T17:16:12.009Z,0
2017-10-30T17:17:34.198Z,0
2017-10-30T17:18:56.894Z,0
2017-10-30T17:20:19.669Z,0
2017-10-30T17:21:41.576Z,0
2017-10-30T17:23:04.127Z,0
2017-10-30T17:24:26.718Z,0
2017-10-30T17:25:49.244Z,0
2017-10-30T17:27:11.536Z,0
2017-10-30T17:28:33.752Z,0
2017-10-30T17:29:56.397Z,0
2017-10-30T17:31:19.032Z,0
2017-10-30T17:32:40.905Z,0
2017-10-30T17:34:03.465Z,0
2017-10-30T17:35:25.643Z,0
2017-10-30T17:36:48.173Z,0
2017-10-30T17:38:10.360Z,0
2017-10-30T17:39:32.267Z,0
2017-10-30T17:40:54.464Z,0
2017-10-30T17:42:16.686Z,0
2017-10-30T17:43:38.570Z,0
2017-10-30T17:45:01.098Z,0
2017-10-30T17:46:23.660Z,0
2017-10-30T17:47:45.861Z,0
2017-10-30T17:49:08.441Z,0
2017-10-30T17:50:30.958Z,0
2017-10-30T17:51:53.166Z,0
2017-10-30T17:53:15.773Z,0
2017-10-30T17:54:38.300Z,0
2017-10-30T17:56:00.840Z,64
2017-10-30T17:57:22.756Z,0
2017-10-30T17:58:44.947Z,0
2017-10-30T18:00:07.628Z,0
2017-10-30T18:01:29.907Z,0
2017-10-30T18:02:52.482Z,0
2017-10-30T18:04:15.094Z,0
2017-10-30T18:05:37.787Z,0
2017-10-30T18:07:00.363Z,0
2017-10-30T18:08:22.314Z,0
2017-10-30T18:09:44.650Z,0
2017-10-30T18:11:07.310Z,0
2017-10-30T18:12:29.479Z,0
2017-10-30T18:13:52.028Z,0
2017-10-30T18:15:14.723Z,0
2017-10-30T18:16:36.930Z,0
2017-10-30T18:17:58.804Z,0
2017-10-30T18:19:20.458Z,0
2017-10-30T18:20:42.758Z,0
2017-10-30T18:22:05.287Z,0
2017-10-30T18:23:27.173Z,0
2017-10-30T18:24:49.736Z,0
2017-10-30T18:26:12.178Z,0
2017-10-30T18:27:34.436Z,0
2017-10-30T18:28:57.112Z,0
2017-10-30T18:30:19.696Z,0
2017-10-30T18:31:42.080Z,0
2017-10-30T18:33:03.953Z,0
2017-10-30T18:34:25.856Z,0
2017-10-30T18:35:48.135Z,0
2017-10-30T18:37:10.691Z,0
2017-10-30T18:38:33.245Z,0
2017-10-30T18:39:55.913Z,0
2017-10-30T18:41:18.596Z,0
2017-10-30T18:42:41.184Z,0
2017-10-30T18:44:03.755Z,0
2017-10-30T18:45:25.337Z,0
2017-10-30T18:46:47.909Z,0
2017-10-30T18:48:10.141Z,0
2017-10-30T18:49:32.660Z,0
2017-10-30T18:50:54.854Z,0
2017-10-30T18:52:17.103Z,0
2017-10-30T18:53:38.974Z,0
2017-10-30T18:55:01.172Z,0
2017-10-30T18:56:23.386Z,0
2017-10-30T18:57:45.647Z,0
2017-10-30T18:59:08.156Z,0
2017-10-30T19:00:30.706Z,0
2017-10-30T19:01:53.318Z,0
2017-10-30T19:03:15.853Z,0
2017-10-30T19:04:38.415Z,0
2017-10-30T19:06:00.952Z,0
2017-10-30T19:07:23.503Z,0
2017-10-30T19:08:45.698Z,0
2017-10-30T19:10:08.280Z,0